Time;durP1;ratioP1;P1;durP2;ratioP2;P2;SDS_P1;SDS_P2;PMS_P1;PMS_P2;Temp;Humidity;BMP_temperature;BMP_pressure;BME280_temperature;BME280_humidity;BME280_pressure;Samples;Min_cycle;Max_cycle;Signal;HPM_P1;HPM_P2
2021/10/24 00:00:10;;;;;;;12.53;5.33;;;9.70;99.90;;;;;;5111675;28;20479;-48
2021/10/24 00:02:39;;;;;;;15.63;7.20;;;9.60;99.90;;;;;;5112085;28;20879;-49
2021/10/24 00:05:07;;;;;;;10.37;6.70;;;9.60;99.90;;;;;;5111273;28;20473;-48
2021/10/24 00:07:34;;;;;;;16.70;7.40;;;9.70;99.90;;;;;;5112047;28;20414;-49
2021/10/24 00:10:01;;;;;;;15.53;8.03;;;9.50;99.90;;;;;;5111836;28;20427;-49
2021/10/24 00:12:28;;;;;;;15.30;7.50;;;9.30;99.90;;;;;;5111755;28;20806;-49
2021/10/24 00:14:54;;;;;;;12.33;8.37;;;9.60;99.90;;;;;;5111820;28;20431;-49
2021/10/24 00:17:22;;;;;;;15.20;9.03;;;9.20;99.90;;;;;;5111947;28;20431;-49
2021/10/24 00:19:49;;;;;;;14.43;8.87;;;9.80;99.90;;;;;;5113803;28;20432;-49
2021/10/24 00:22:16;;;;;;;15.80;7.73;;;9.60;99.90;;;;;;5112543;28;20452;-49
2021/10/24 00:24:42;;;;;;;13.30;8.40;;;10.10;99.90;;;;;;5111823;28;20463;-49
2021/10/24 00:27:09;;;;;;;16.77;8.67;;;9.60;99.90;;;;;;5112099;28;20431;-49
2021/10/24 00:29:36;;;;;;;15.23;8.80;;;9.60;99.90;;;;;;5111563;28;20434;-49
2021/10/24 00:32:03;;;;;;;16.33;9.07;;;9.60;99.90;;;;;;5111751;28;20964;-49
2021/10/24 00:34:31;;;;;;;15.27;9.37;;;9.70;99.90;;;;;;5110315;28;20887;-49
2021/10/24 00:36:58;;;;;;;16.03;8.93;;;9.60;99.90;;;;;;5112132;28;20405;-49
2021/10/24 00:39:24;;;;;;;17.13;8.37;;;9.10;99.90;;;;;;5111476;28;20432;-49
2021/10/24 00:41:51;;;;;;;13.77;8.20;;;9.60;99.90;;;;;;5110842;28;20518;-49
2021/10/24 00:44:21;;;;;;;14.83;9.90;;;9.60;99.90;;;;;;5110503;28;20476;-49
2021/10/24 00:46:48;;;;;;;15.10;10.13;;;9.30;99.90;;;;;;5110174;28;20952;-48
2021/10/24 00:49:14;;;;;;;12.20;8.53;;;9.50;99.90;;;;;;5111324;28;20439;-48
2021/10/24 00:51:43;;;;;;;17.77;9.97;;;9.50;99.90;;;;;;5111578;28;20447;-48
2021/10/24 00:54:11;;;;;;;21.30;9.97;;;9.70;99.90;;;;;;5110462;28;20461;-48
2021/10/24 00:56:40;;;;;;;13.37;8.83;;;9.80;99.90;;;;;;5111779;28;20428;-48
2021/10/24 00:59:07;;;;;;;19.03;9.73;;;9.20;99.90;;;;;;5110230;28;20455;-48
2021/10/24 01:01:33;;;;;;;23.90;9.33;;;9.60;99.90;;;;;;5112931;28;20459;-48
2021/10/24 01:04:00;;;;;;;11.70;9.00;;;9.40;99.90;;;;;;5114186;28;20464;-48
2021/10/24 01:06:28;;;;;;;18.07;11.23;;;9.30;99.90;;;;;;5115263;28;20951;-49
2021/10/24 01:08:56;;;;;;;11.00;8.77;;;9.60;99.90;;;;;;5115138;28;20932;-49
2021/10/24 01:11:23;;;;;;;13.80;10.13;;;9.10;99.90;;;;;;5113874;28;20466;-49
2021/10/24 01:13:50;;;;;;;17.33;10.60;;;9.50;99.90;;;;;;5113607;28;20478;-49
2021/10/24 01:16:18;;;;;;;16.40;9.60;;;9.50;99.90;;;;;;5114804;28;20488;-49
2021/10/24 01:18:46;;;;;;;17.50;11.20;;;9.80;99.90;;;;;;5113437;28;20547;-49
2021/10/24 01:21:15;;;;;;;15.53;9.40;;;9.50;99.90;;;;;;5113682;28;20495;-49
2021/10/24 01:23:42;;;;;;;17.23;8.90;;;9.50;99.90;;;;;;5113859;28;20559;-49
2021/10/24 01:26:09;;;;;;;24.57;10.37;;;9.00;99.90;;;;;;5113687;28;20476;-49
2021/10/24 01:28:36;;;;;;;12.63;8.17;;;9.20;99.90;;;;;;5113230;28;20777;-50
2021/10/24 01:31:04;;;;;;;12.77;9.53;;;9.20;99.90;;;;;;5113432;28;20842;-49
2021/10/24 01:33:32;;;;;;;17.33;10.43;;;9.10;99.90;;;;;;5113681;28;20448;-50
2021/10/24 01:36:03;;;;;;;18.27;10.00;;;9.10;99.90;;;;;;5113698;28;20458;-49
2021/10/24 01:38:32;;;;;;;17.10;10.77;;;9.30;99.90;;;;;;5114731;28;20439;-47
2021/10/24 01:40:59;;;;;;;20.80;9.77;;;9.10;99.90;;;;;;5115513;28;20507;-48
2021/10/24 01:43:27;;;;;;;17.97;9.43;;;9.10;99.90;;;;;;5113612;28;20471;-48
2021/10/24 01:45:55;;;;;;;15.53;9.30;;;9.10;99.90;;;;;;5113222;28;20544;-48
2021/10/24 01:48:24;;;;;;;15.30;8.77;;;8.80;99.90;;;;;;5112974;28;20551;-49
2021/10/24 01:50:52;;;;;;;16.93;9.80;;;9.10;99.90;;;;;;5114511;28;20470;-48
2021/10/24 01:53:20;;;;;;;14.00;10.17;;;9.60;99.90;;;;;;5113458;28;20448;-47
2021/10/24 01:55:49;;;;;;;16.83;10.00;;;8.90;99.90;;;;;;5114985;28;20780;-49
2021/10/24 01:58:17;;;;;;;11.33;9.50;;;9.10;99.90;;;;;;5113019;28;20437;-48
2021/10/24 02:00:45;;;;;;;14.60;8.60;;;9.30;99.90;;;;;;5112962;28;20482;-48
2021/10/24 02:03:13;;;;;;;16.53;8.77;;;8.60;99.90;;;;;;5113108;28;20444;-48
2021/10/24 02:06:00;;;;;;;17.93;10.07;;;9.00;99.90;;;;;;5113342;28;20429;-48
2021/10/24 02:08:31;;;;;;;14.83;9.57;;;8.90;99.90;;;;;;5112695;28;20822;-49
2021/10/24 02:11:01;;;;;;;14.20;9.93;;;9.00;99.90;;;;;;5114254;28;20740;-48
2021/10/24 02:13:29;;;;;;;17.47;9.70;;;8.80;99.90;;;;;;5112365;28;20452;-48
2021/10/24 02:16:02;;;;;;;13.50;9.47;;;8.80;99.90;;;;;;5112773;28;20968;-49
2021/10/24 02:18:29;;;;;;;14.80;9.20;;;8.70;99.90;;;;;;5112659;28;20411;-48
2021/10/24 02:20:57;;;;;;;21.40;10.17;;;8.50;99.90;;;;;;5112735;28;20442;-48
2021/10/24 02:23:23;;;;;;;15.83;9.73;;;8.60;99.90;;;;;;5112693;28;20488;-49
2021/10/24 02:25:53;;;;;;;16.37;9.13;;;8.50;99.90;;;;;;5112473;28;20489;-49
2021/10/24 02:28:22;;;;;;;16.33;9.37;;;8.20;99.90;;;;;;5112276;28;20452;-48
2021/10/24 02:30:49;;;;;;;13.90;8.50;;;8.70;99.90;;;;;;5112198;28;20463;-48
2021/10/24 02:33:35;;;;;;;13.87;8.27;;;8.30;99.90;;;;;;5114144;28;20422;-49
2021/10/24 02:36:24;;;;;;;14.33;10.43;;;8.60;99.90;;;;;;5113626;27;20517;-49
2021/10/24 02:38:58;;;;;;;14.77;10.07;;;8.70;99.90;;;;;;5111786;28;20784;-49
2021/10/24 02:41:25;;;;;;;14.90;10.20;;;8.70;99.90;;;;;;5112214;28;20487;-49
2021/10/24 02:43:56;;;;;;;18.33;8.97;;;8.50;99.90;;;;;;5112249;28;20442;-49
2021/10/24 02:46:23;;;;;;;13.10;8.97;;;8.30;99.90;;;;;;5113364;28;20403;-49
2021/10/24 02:48:50;;;;;;;14.97;7.80;;;8.60;99.90;;;;;;5113109;28;20912;-49
2021/10/24 02:51:17;;;;;;;13.47;7.80;;;8.90;99.90;;;;;;5112205;28;20466;-49
2021/10/24 02:53:43;;;;;;;13.73;8.20;;;8.80;99.90;;;;;;5112569;28;20448;-48
2021/10/24 02:56:10;;;;;;;17.77;9.80;;;8.70;99.90;;;;;;5113598;28;20448;-49
2021/10/24 02:58:37;;;;;;;12.97;8.27;;;8.70;99.90;;;;;;5111762;28;20487;-49
2021/10/24 03:01:05;;;;;;;11.27;8.90;;;8.70;99.90;;;;;;5112578;28;20455;-47
2021/10/24 03:03:32;;;;;;;14.10;8.67;;;8.50;99.90;;;;;;5113187;28;20434;-49
2021/10/24 03:05:58;;;;;;;13.23;7.93;;;8.60;99.90;;;;;;5111974;28;20444;-49
2021/10/24 03:08:25;;;;;;;10.90;7.50;;;8.70;99.90;;;;;;5111207;28;20452;-49
2021/10/24 03:10:52;;;;;;;11.87;8.70;;;9.10;99.90;;;;;;5111617;28;20553;-49
2021/10/24 03:13:19;;;;;;;10.93;7.27;;;9.00;99.90;;;;;;5111874;28;20452;-48
2021/10/24 03:15:48;;;;;;;13.53;8.00;;;8.60;99.90;;;;;;5111412;28;20943;-49
2021/10/24 03:18:16;;;;;;;7.67;6.37;;;8.90;99.90;;;;;;5111120;28;20458;-50
2021/10/24 03:20:45;;;;;;;14.10;7.93;;;8.80;99.90;;;;;;5111995;28;20522;-48
2021/10/24 03:23:13;;;;;;;13.97;10.13;;;8.90;99.90;;;;;;5113758;28;20502;-48
2021/10/24 03:25:40;;;;;;;14.80;9.80;;;9.20;99.90;;;;;;5113005;28;20450;-48
2021/10/24 03:28:07;;;;;;;15.70;8.93;;;8.60;99.90;;;;;;5111081;28;20448;-48
2021/10/24 03:30:33;;;;;;;15.00;9.00;;;8.80;99.90;;;;;;5111307;28;20459;-48
2021/10/24 03:33:00;;;;;;;16.07;9.00;;;8.80;99.90;;;;;;5111497;28;20444;-49
2021/10/24 03:35:28;;;;;;;17.90;9.53;;;9.10;99.90;;;;;;5111403;28;20452;-47
2021/10/24 03:37:55;;;;;;;13.57;9.00;;;8.80;99.90;;;;;;5111048;28;20444;-47
2021/10/24 03:40:22;;;;;;;13.20;8.70;;;8.80;99.90;;;;;;5111438;28;20974;-47
2021/10/24 03:42:49;;;;;;;10.50;8.17;;;8.80;99.90;;;;;;5111251;28;20482;-48
2021/10/24 03:45:15;;;;;;;20.23;9.30;;;8.80;99.90;;;;;;5111134;28;20471;-48
2021/10/24 03:47:42;;;;;;;14.33;7.77;;;9.30;99.90;;;;;;5112136;28;20435;-48
2021/10/24 03:50:09;;;;;;;13.03;7.43;;;9.00;99.90;;;;;;5111185;28;20455;-48
2021/10/24 03:52:37;;;;;;;15.93;8.40;;;9.00;99.90;;;;;;5112125;28;20968;-49
2021/10/24 03:55:10;;;;;;;11.87;8.07;;;8.90;99.90;;;;;;5112237;28;20772;-49
2021/10/24 03:57:37;;;;;;;19.57;9.23;;;8.90;99.90;;;;;;5110871;28;20486;-48
2021/10/24 04:00:05;;;;;;;16.27;8.93;;;8.90;99.90;;;;;;5112222;28;20424;-49
2021/10/24 04:02:52;;;;;;;14.37;7.90;;;9.10;99.90;;;;;;5108464;22;20497;-50
2021/10/24 04:05:18;;;;;;;17.50;10.10;;;9.40;99.90;;;;;;5073484;28;20507;-50
2021/10/24 04:11:34;;;;;;;14.73;8.67;;;8.90;99.90;;;;;;5091754;28;20504;-51
2021/10/24 04:14:02;;;;;;;12.73;9.60;;;8.90;99.90;;;;;;5073526;28;20431;-50
2021/10/24 04:16:28;;;;;;;13.00;7.43;;;8.90;99.90;;;;;;5073575;28;20820;-51
2021/10/24 04:19:07;;;;;;;13.77;7.10;;;8.70;99.90;;;;;;5073063;28;20881;-50
2021/10/24 04:21:42;;;;;;;8.60;5.87;;;8.90;99.90;;;;;;5073614;28;20460;-51
2021/10/24 04:24:09;;;;;;;12.87;7.17;;;8.40;99.90;;;;;;5073328;28;20491;-50
2021/10/24 04:26:37;;;;;;;11.03;6.40;;;9.00;99.90;;;;;;5073405;28;20471;-50
2021/10/24 04:29:03;;;;;;;9.47;5.73;;;8.80;99.90;;;;;;5091199;28;20510;-51
2021/10/24 04:31:30;;;;;;;7.43;5.03;;;8.90;99.90;;;;;;5073584;28;20971;-51
2021/10/24 04:33:57;;;;;;;15.30;6.60;;;8.80;99.90;;;;;;5073119;28;20445;-51
2021/10/24 04:36:24;;;;;;;14.00;6.57;;;9.10;99.90;;;;;;5074673;28;20488;-50
2021/10/24 04:38:51;;;;;;;13.17;6.33;;;9.30;99.90;;;;;;5095093;28;20490;-50
2021/10/24 04:41:18;;;;;;;13.53;5.70;;;9.40;99.90;;;;;;5077097;28;20472;-51
2021/10/24 04:43:46;;;;;;;8.33;5.60;;;9.10;99.90;;;;;;5077137;28;20973;-51
2021/10/24 04:46:16;;;;;;;7.80;5.83;;;8.90;99.90;;;;;;5077103;28;20556;-51
2021/10/24 04:48:43;;;;;;;16.53;6.47;;;9.00;99.90;;;;;;5076828;28;20631;-51
2021/10/24 04:51:10;;;;;;;7.50;5.70;;;8.60;99.90;;;;;;5077083;28;20469;-51
2021/10/24 04:53:37;;;;;;;11.67;5.57;;;8.60;99.90;;;;;;5077015;28;20442;-50
2021/10/24 04:56:04;;;;;;;9.33;6.40;;;9.00;99.90;;;;;;5077028;28;20834;-50
2021/10/24 04:58:33;;;;;;;13.67;6.27;;;8.70;99.90;;;;;;5076575;28;20448;-51
2021/10/24 05:01:02;;;;;;;11.23;5.40;;;8.70;99.90;;;;;;5076588;28;21011;-50
2021/10/24 05:03:29;;;;;;;13.73;7.40;;;8.90;99.90;;;;;;5095226;28;20452;-51
2021/10/24 05:05:57;;;;;;;10.60;6.00;;;8.90;99.90;;;;;;5076684;28;20510;-51
2021/10/24 05:08:23;;;;;;;12.03;5.60;;;8.80;99.90;;;;;;5094639;28;20456;-51
2021/10/24 05:10:50;;;;;;;10.87;6.20;;;8.90;99.90;;;;;;5076548;28;20763;-51
2021/10/24 05:13:17;;;;;;;12.10;6.03;;;8.70;99.90;;;;;;5076795;28;20813;-51
2021/10/24 05:15:44;;;;;;;15.20;7.43;;;8.80;99.90;;;;;;5076475;28;20452;-51
2021/10/24 05:18:13;;;;;;;14.37;7.40;;;9.00;99.90;;;;;;5076193;28;20886;-51
2021/10/24 05:20:39;;;;;;;10.50;7.40;;;8.50;99.90;;;;;;5076341;28;20510;-50
2021/10/24 05:23:06;;;;;;;12.33;8.50;;;8.50;99.90;;;;;;5076380;28;20447;-50
2021/10/24 05:25:36;;;;;;;10.80;7.23;;;9.00;99.90;;;;;;5076137;28;20545;-50
2021/10/24 05:28:04;;;;;;;10.03;7.60;;;8.60;99.90;;;;;;5076118;28;20542;-51
2021/10/24 05:30:31;;;;;;;13.07;7.60;;;8.80;99.90;;;;;;5094669;28;20482;-50
2021/10/24 05:32:57;;;;;;;9.00;6.50;;;8.60;99.90;;;;;;5076253;28;20475;-51
2021/10/24 05:35:28;;;;;;;13.43;7.07;;;8.00;99.90;;;;;;5076300;28;20551;-51
2021/10/24 05:37:55;;;;;;;15.10;7.90;;;8.60;99.90;;;;;;5075852;28;20459;-50
2021/10/24 05:40:22;;;;;;;13.23;7.33;;;8.30;99.90;;;;;;5076074;28;20995;-51
2021/10/24 05:42:52;;;;;;;12.97;8.13;;;8.30;99.90;;;;;;5076049;28;20511;-50
2021/10/24 05:45:20;;;;;;;11.70;7.03;;;8.60;99.90;;;;;;5075934;28;20469;-50
2021/10/24 05:47:46;;;;;;;13.97;7.80;;;8.60;99.90;;;;;;5074576;28;20478;-50
2021/10/24 05:50:19;;;;;;;9.13;6.93;;;8.20;99.90;;;;;;5075979;28;20424;-50
2021/10/24 05:52:47;;;;;;;12.20;7.40;;;8.40;99.90;;;;;;5094225;28;20444;-50
2021/10/24 05:55:14;;;;;;;13.67;7.43;;;7.60;99.90;;;;;;5076057;28;20451;-51
2021/10/24 05:57:41;;;;;;;9.70;7.27;;;8.40;99.90;;;;;;5075397;28;21043;-51
2021/10/24 06:00:26;;;;;;;12.73;7.90;;;7.60;99.90;;;;;;5094046;28;20512;-51
2021/10/24 06:03:13;;;;;;;17.17;8.90;;;7.90;99.90;;;;;;5093249;28;20443;-50
2021/10/24 06:06:00;;;;;;;16.60;7.63;;;8.00;99.90;;;;;;5093548;28;20475;-50
2021/10/24 06:08:28;;;;;;;12.17;7.80;;;7.90;99.90;;;;;;5093339;28;20497;-50
2021/10/24 06:11:02;;;;;;;14.97;8.33;;;7.50;99.90;;;;;;5093752;28;20469;-51
2021/10/24 06:13:29;;;;;;;12.53;9.00;;;8.10;99.90;;;;;;5094159;28;20777;-51
2021/10/24 06:15:56;;;;;;;13.70;8.70;;;8.00;99.90;;;;;;5075580;28;20566;-51
2021/10/24 06:18:23;;;;;;;13.50;8.47;;;8.20;99.90;;;;;;5075523;28;20450;-51
2021/10/24 06:20:50;;;;;;;14.40;9.10;;;7.90;99.90;;;;;;5075347;28;20442;-51
2021/10/24 06:23:17;;;;;;;12.33;8.30;;;7.90;99.90;;;;;;5075412;28;20790;-51
2021/10/24 06:25:57;;;;;;;15.93;9.03;;;8.10;99.90;;;;;;5075072;28;20865;-52
2021/10/24 06:28:24;;;;;;;12.57;8.33;;;8.40;99.90;;;;;;5075185;28;20478;-51
2021/10/24 06:30:51;;;;;;;18.57;8.63;;;8.00;99.90;;;;;;5093327;28;20439;-51
2021/10/24 06:33:18;;;;;;;13.40;7.77;;;7.50;99.90;;;;;;5093511;28;20417;-51
2021/10/24 06:36:13;;;;;;;14.57;9.50;;;8.20;99.90;;;;;;5092795;28;20447;-50
2021/10/24 06:38:52;;;;;;;11.00;8.00;;;8.10;99.90;;;;;;5092985;28;20440;-50
2021/10/24 06:41:35;;;;;;;11.30;8.20;;;8.10;99.90;;;;;;5074876;28;20498;-49
2021/10/24 06:44:25;;;;;;;11.73;7.47;;;8.40;99.90;;;;;;5091969;28;20430;-49
2021/10/24 06:47:10;;;;;;;12.03;8.40;;;8.10;99.90;;;;;;5093522;28;20394;-52
2021/10/24 06:49:57;;;;;;;15.77;7.90;;;8.20;99.90;;;;;;5092414;28;20497;-51
2021/10/24 06:52:43;;;;;;;14.23;9.00;;;8.10;99.90;;;;;;5092797;28;20467;-52
2021/10/24 06:55:30;;;;;;;13.87;7.80;;;8.50;99.90;;;;;;5061267;28;20440;-52
2021/10/24 06:58:17;;;;;;;16.83;9.53;;;7.90;99.90;;;;;;5092559;28;20431;-51
2021/10/24 07:01:02;;;;;;;12.73;9.13;;;8.40;99.90;;;;;;5092823;28;20548;-50
2021/10/24 07:03:47;;;;;;;15.90;8.53;;;8.10;99.90;;;;;;5093213;28;20558;-50
2021/10/24 07:06:34;;;;;;;12.33;8.80;;;8.00;99.90;;;;;;5074712;28;20478;-52
2021/10/24 07:09:18;;;;;;;13.37;8.10;;;8.30;99.90;;;;;;5074098;28;20456;-52
2021/10/24 07:11:45;;;;;;;14.10;8.33;;;8.30;99.90;;;;;;5074406;28;20475;-51
2021/10/24 07:14:13;;;;;;;18.07;8.83;;;8.60;99.90;;;;;;5074550;28;20441;-50
2021/10/24 07:16:40;;;;;;;13.90;8.70;;;8.20;99.90;;;;;;5074422;28;20510;-51
2021/10/24 07:19:06;;;;;;;9.20;7.70;;;8.20;99.90;;;;;;5073934;28;20539;-51
2021/10/24 07:21:33;;;;;;;12.23;8.70;;;8.30;99.90;;;;;;5074269;28;20818;-51
2021/10/24 07:24:01;;;;;;;13.43;8.93;;;8.30;99.90;;;;;;5074043;28;20486;-52
2021/10/24 07:26:36;;;;;;;18.30;8.63;;;8.40;99.90;;;;;;5073964;28;20835;-51
2021/10/24 07:29:03;;;;;;;12.90;8.80;;;7.80;99.90;;;;;;5073570;28;20539;-51
2021/10/24 07:31:31;;;;;;;12.70;8.60;;;7.90;99.90;;;;;;5074571;28;20477;-50
2021/10/24 07:34:17;;;;;;;10.93;9.47;;;8.40;99.90;;;;;;5092280;28;21058;-51
2021/10/24 07:36:45;;;;;;;13.53;9.27;;;8.70;99.90;;;;;;5073880;28;20497;-51
2021/10/24 07:39:12;;;;;;;11.40;8.70;;;8.20;99.90;;;;;;5073680;28;20500;-50
2021/10/24 07:41:39;;;;;;;17.97;9.23;;;8.30;99.90;;;;;;5073667;28;20464;-51
2021/10/24 07:44:07;;;;;;;16.83;9.60;;;8.40;99.90;;;;;;5073600;28;20448;-51
2021/10/24 07:46:37;;;;;;;11.27;9.00;;;8.80;99.90;;;;;;5073329;28;20483;-51
2021/10/24 07:49:04;;;;;;;15.10;9.27;;;8.60;99.90;;;;;;5073172;28;20453;-51
2021/10/24 07:51:30;;;;;;;15.83;9.30;;;8.70;99.90;;;;;;5091909;28;20463;-51
2021/10/24 07:53:58;;;;;;;13.07;8.77;;;8.80;99.90;;;;;;5073798;28;20641;-50
2021/10/24 07:56:25;;;;;;;14.20;9.67;;;8.20;99.90;;;;;;5073651;28;20841;-51
2021/10/24 07:59:01;;;;;;;16.27;9.87;;;8.60;99.90;;;;;;5073337;28;20537;-50
2021/10/24 08:01:27;;;;;;;10.97;8.87;;;8.40;99.90;;;;;;5073472;28;20572;-50
2021/10/24 08:03:58;;;;;;;13.27;9.73;;;8.60;99.90;;;;;;5073599;28;20455;-51
2021/10/24 08:06:32;;;;;;;13.33;8.83;;;9.10;99.90;;;;;;5073644;28;20467;-51
2021/10/24 08:09:01;;;;;;;12.33;8.90;;;8.80;99.90;;;;;;5073418;28;20444;-51
2021/10/24 08:11:28;;;;;;;12.10;9.27;;;8.70;99.90;;;;;;5090967;28;20449;-51
2021/10/24 08:13:55;;;;;;;10.43;9.07;;;8.70;99.90;;;;;;5073400;28;20501;-51
2021/10/24 08:16:22;;;;;;;17.07;9.10;;;8.80;99.90;;;;;;5091485;28;20424;-52
2021/10/24 08:18:49;;;;;;;13.13;10.43;;;8.80;99.90;;;;;;5072567;28;20556;-50
2021/10/24 08:21:26;;;;;;;12.50;8.17;;;8.70;99.90;;;;;;5073452;28;20481;-51
2021/10/24 08:23:55;;;;;;;14.77;8.07;;;9.00;99.90;;;;;;5073325;28;20597;-51
2021/10/24 08:26:22;;;;;;;13.43;9.10;;;8.80;99.90;;;;;;5073443;28;21011;-51
2021/10/24 08:28:50;;;;;;;14.60;8.40;;;8.90;99.90;;;;;;5072387;28;20530;-51
2021/10/24 08:31:35;;;;;;;15.47;8.50;;;9.10;99.90;;;;;;5091612;28;20447;-51
2021/10/24 08:34:03;;;;;;;13.60;8.50;;;9.20;99.90;;;;;;5073108;28;20547;-52
2021/10/24 08:36:31;;;;;;;18.67;8.87;;;9.10;99.90;;;;;;5091137;28;20770;-51
2021/10/24 08:38:58;;;;;;;11.70;7.63;;;9.00;99.90;;;;;;5090947;28;20437;-52
2021/10/24 08:41:28;;;;;;;11.57;8.27;;;9.20;99.90;;;;;;5091364;28;20459;-51
2021/10/24 08:43:55;;;;;;;15.17;9.60;;;8.80;99.90;;;;;;5091244;28;20999;-51
2021/10/24 08:46:23;;;;;;;10.00;7.60;;;9.50;99.90;;;;;;5091573;28;20468;-51
2021/10/24 08:48:50;;;;;;;16.20;9.57;;;9.50;99.90;;;;;;5090635;28;20775;-52
2021/10/24 08:51:17;;;;;;;10.10;8.10;;;9.60;99.90;;;;;;5090774;28;20814;-52
2021/10/24 08:53:46;;;;;;;14.30;8.37;;;9.70;99.90;;;;;;5091658;28;20433;-51
2021/10/24 08:56:17;;;;;;;10.97;8.23;;;9.70;99.90;;;;;;5073030;28;20441;-52
2021/10/24 08:58:43;;;;;;;14.20;7.87;;;10.10;99.90;;;;;;5090994;28;20433;-51
2021/10/24 09:01:12;;;;;;;16.63;7.90;;;9.50;99.90;;;;;;5072554;28;20840;-51
2021/10/24 09:03:39;;;;;;;13.20;8.20;;;9.80;99.90;;;;;;5090901;28;20527;-51
2021/10/24 09:06:07;;;;;;;9.63;7.63;;;10.20;99.90;;;;;;5090913;28;21079;-51
2021/10/24 09:08:37;;;;;;;17.57;7.60;;;9.60;99.90;;;;;;5090487;28;20802;-52
2021/10/24 09:11:05;;;;;;;11.43;7.97;;;9.80;99.90;;;;;;5090859;28;20953;-52
2021/10/24 09:13:34;;;;;;;16.13;8.23;;;9.90;99.90;;;;;;5090882;28;20532;-50
2021/10/24 09:16:02;;;;;;;11.00;9.10;;;10.20;99.90;;;;;;5090785;28;20516;-50
2021/10/24 09:18:37;;;;;;;11.40;8.10;;;10.20;99.90;;;;;;5090531;28;20443;-51
2021/10/24 09:21:24;;;;;;;16.00;8.70;;;10.20;99.90;;;;;;5072348;28;20831;-51
2021/10/24 09:23:53;;;;;;;15.80;9.43;;;10.50;99.90;;;;;;5092488;28;20843;-52
2021/10/24 09:26:22;;;;;;;18.83;10.80;;;10.60;99.90;;;;;;5094297;28;20562;-51
2021/10/24 09:29:02;;;;;;;10.80;8.10;;;10.70;99.90;;;;;;5093685;28;20439;-51
2021/10/24 09:31:30;;;;;;;12.17;7.00;;;10.70;99.90;;;;;;5093647;28;20459;-50
2021/10/24 09:33:57;;;;;;;13.30;7.60;;;10.40;99.90;;;;;;5093993;28;20432;-51
2021/10/24 09:36:25;;;;;;;10.13;6.10;;;10.50;99.90;;;;;;5093965;28;20425;-51
2021/10/24 09:39:11;;;;;;;10.60;6.33;;;10.90;99.90;;;;;;5093725;28;20555;-52
2021/10/24 09:41:39;;;;;;;14.00;6.63;;;11.20;99.90;;;;;;5093880;28;20456;-51
2021/10/24 09:44:10;;;;;;;11.30;6.33;;;10.70;99.90;;;;;;5075710;28;20531;-51
2021/10/24 09:46:37;;;;;;;14.73;6.23;;;10.70;99.90;;;;;;5093157;28;20476;-50
2021/10/24 09:49:17;;;;;;;11.20;7.80;;;10.70;99.90;;;;;;5093756;28;20912;-53
2021/10/24 09:51:43;;;;;;;10.73;6.40;;;10.90;99.90;;;;;;5094020;28;20979;-51
2021/10/24 09:54:19;;;;;;;12.00;5.23;;;10.60;99.90;;;;;;5093236;28;20429;-52
2021/10/24 09:56:48;;;;;;;10.80;6.03;;;10.70;99.90;;;;;;5094193;28;20432;-51
2021/10/24 09:59:17;;;;;;;8.40;4.87;;;10.60;99.90;;;;;;5093657;28;20477;-51
2021/10/24 10:01:45;;;;;;;10.83;5.40;;;11.10;99.90;;;;;;5093569;28;20464;-51
2021/10/24 10:04:12;;;;;;;5.60;4.73;;;10.70;99.90;;;;;;5094287;28;20407;-51
2021/10/24 10:06:39;;;;;;;17.60;5.30;;;11.10;99.90;;;;;;5093960;28;20854;-51
2021/10/24 10:09:06;;;;;;;9.80;5.00;;;11.20;99.90;;;;;;5093330;28;20396;-51
2021/10/24 10:11:39;;;;;;;7.90;4.50;;;11.60;99.90;;;;;;5093465;28;20453;-50
2021/10/24 10:14:11;;;;;;;12.27;5.20;;;11.40;99.90;;;;;;5093343;28;20438;-51
2021/10/24 10:16:39;;;;;;;11.93;5.70;;;11.20;99.90;;;;;;5093071;28;20440;-51
2021/10/24 10:19:08;;;;;;;9.97;5.27;;;10.90;99.90;;;;;;5092676;28;20425;-52
2021/10/24 10:21:37;;;;;;;11.33;5.27;;;11.30;99.90;;;;;;5092958;28;20460;-51
2021/10/24 10:24:06;;;;;;;8.33;5.20;;;11.30;99.90;;;;;;5092874;28;20433;-50
2021/10/24 10:26:39;;;;;;;14.90;7.77;;;11.40;99.90;;;;;;5093239;28;20479;-51
2021/10/24 10:29:08;;;;;;;6.50;5.20;;;11.30;99.90;;;;;;5092434;28;20952;-50
2021/10/24 10:31:36;;;;;;;10.10;5.30;;;11.30;99.90;;;;;;5093135;28;20984;-51
2021/10/24 10:34:05;;;;;;;11.93;5.20;;;11.80;99.90;;;;;;5092414;28;20486;-50
2021/10/24 10:36:59;;;;;;;9.60;5.80;;;11.40;99.90;;;;;;5093369;28;20428;-51
2021/10/24 10:39:39;;;;;;;10.57;6.40;;;11.40;99.90;;;;;;5092061;28;20433;-51
2021/10/24 10:43:03;;;;;;;11.07;5.37;;;11.50;99.90;;;;;;5093016;28;20457;-50
2021/10/24 10:45:50;;;;;;;14.60;5.30;;;11.80;99.90;;;;;;5010686;28;20420;-50
2021/10/24 10:48:29;;;;;;;8.93;5.10;;;11.40;99.90;;;;;;5009903;28;20591;-51
2021/10/24 10:50:57;;;;;;;12.43;6.10;;;11.50;99.90;;;;;;5010715;28;20437;-50
2021/10/24 10:53:54;;;;;;;7.73;5.20;;;11.50;99.90;;;;;;5010327;28;20892;-51
2021/10/24 10:56:24;;;;;;;8.73;4.10;;;11.70;99.90;;;;;;5010163;28;20444;-51
2021/10/24 10:58:52;;;;;;;8.63;4.63;;;11.20;99.90;;;;;;5010219;28;20449;-51
2021/10/24 11:01:29;;;;;;;5.73;4.20;;;11.60;99.90;;;;;;5009999;28;20501;-51
2021/10/24 11:03:58;;;;;;;9.67;4.63;;;11.60;99.90;;;;;;5010084;28;21003;-51
2021/10/24 11:06:54;;;;;;;10.73;3.70;;;11.60;99.90;;;;;;5009983;28;20472;-51
2021/10/24 11:09:44;;;;;;;8.67;3.70;;;11.30;99.90;;;;;;4987541;28;20476;-52
2021/10/24 11:12:11;;;;;;;7.80;4.10;;;11.80;99.90;;;;;;5010086;28;20472;-50
2021/10/24 11:14:42;;;;;;;8.73;3.20;;;11.50;99.90;;;;;;5009807;28;20460;-51
2021/10/24 11:17:33;;;;;;;4.90;3.93;;;11.70;99.90;;;;;;5074783;28;20435;-50
2021/10/24 11:20:18;;;;;;;7.17;3.63;;;11.60;99.90;;;;;;5091535;28;20453;-50
2021/10/24 11:22:46;;;;;;;4.40;2.83;;;11.70;99.90;;;;;;5091682;28;20448;-50
2021/10/24 11:25:25;;;;;;;7.33;3.00;;;11.80;99.90;;;;;;5091518;28;20841;-50
2021/10/24 11:27:52;;;;;;;11.67;4.17;;;11.80;99.90;;;;;;5091587;28;20480;-50
2021/10/24 11:30:20;;;;;;;4.83;3.50;;;11.90;99.90;;;;;;5091367;28;20431;-50
2021/10/24 11:32:54;;;;;;;4.73;3.03;;;11.90;99.90;;;;;;5091757;28;20453;-50
2021/10/24 11:35:24;;;;;;;4.77;2.80;;;11.60;99.90;;;;;;5091996;28;20445;-50
2021/10/24 11:37:53;;;;;;;5.03;2.60;;;12.00;99.90;;;;;;5091769;28;20425;-50
2021/10/24 11:40:23;;;;;;;6.67;3.10;;;11.90;99.90;;;;;;5091307;28;20909;-50
2021/10/24 11:43:05;;;;;;;6.90;3.20;;;11.90;99.90;;;;;;5091651;28;20465;-51
2021/10/24 11:45:34;;;;;;;8.10;4.20;;;11.70;99.90;;;;;;5091567;28;20406;-50
2021/10/24 11:48:06;;;;;;;8.00;3.30;;;11.90;99.90;;;;;;5090638;28;20473;-50
2021/10/24 11:50:45;;;;;;;9.10;3.17;;;12.00;99.90;;;;;;5091372;28;20512;-51
2021/10/24 11:53:12;;;;;;;9.40;4.70;;;12.00;99.90;;;;;;5091550;28;20429;-52
2021/10/24 11:55:40;;;;;;;4.30;2.90;;;12.00;99.90;;;;;;5091271;28;20426;-50
2021/10/24 11:58:19;;;;;;;4.40;2.53;;;12.40;99.90;;;;;;5091608;28;20451;-50
2021/10/24 12:00:52;;;;;;;4.70;3.20;;;12.40;99.90;;;;;;5091242;28;20488;-51
2021/10/24 12:03:28;;;;;;;6.30;3.07;;;11.70;99.90;;;;;;5091500;28;20444;-51
2021/10/24 12:05:55;;;;;;;5.47;2.87;;;11.80;99.80;;;;;;5090119;28;20764;-50
2021/10/24 12:08:43;;;;;;;4.30;2.70;;;12.00;99.50;;;;;;5090859;28;20476;-50
2021/10/24 12:11:13;;;;;;;5.93;2.43;;;12.10;99.30;;;;;;5091964;28;20428;-51
2021/10/24 12:13:41;;;;;;;2.70;2.07;;;12.10;98.70;;;;;;5091280;28;20487;-50
2021/10/24 12:16:25;;;;;;;5.23;2.70;;;12.10;98.40;;;;;;5090482;28;20431;-50
2021/10/24 12:19:14;;;;;;;6.37;3.30;;;12.30;98.40;;;;;;5090745;28;20439;-52
2021/10/24 12:21:53;;;;;;;10.80;2.87;;;12.20;97.60;;;;;;5090826;28;20454;-51
2021/10/24 12:24:21;;;;;;;6.97;3.13;;;12.20;97.80;;;;;;5091158;28;20462;-52
2021/10/24 12:26:50;;;;;;;6.23;3.17;;;11.80;97.20;;;;;;5072792;28;20474;-52
2021/10/24 12:29:18;;;;;;;3.53;1.80;;;12.10;97.10;;;;;;5090584;28;20919;-49
2021/10/24 12:31:45;;;;;;;5.63;2.63;;;12.00;96.80;;;;;;5090830;28;20454;-50
2021/10/24 12:34:14;;;;;;;6.13;2.40;;;12.20;96.50;;;;;;5090447;28;20438;-50
2021/10/24 12:36:42;;;;;;;7.43;2.60;;;12.00;96.10;;;;;;5091126;28;20449;-51
2021/10/24 12:39:10;;;;;;;6.23;2.37;;;12.30;96.30;;;;;;5090552;28;20852;-51
2021/10/24 12:41:38;;;;;;;4.80;2.83;;;12.20;96.40;;;;;;5090684;28;20967;-51
2021/10/24 12:44:06;;;;;;;4.93;2.40;;;12.20;96.60;;;;;;5090757;28;20440;-50
2021/10/24 12:46:35;;;;;;;6.30;3.00;;;12.20;96.50;;;;;;5090793;28;20550;-50
2021/10/24 12:49:10;;;;;;;12.73;7.43;;;12.60;96.90;;;;;;5090489;28;20429;-50
2021/10/24 12:51:40;;;;;;;10.80;2.50;;;11.90;96.50;;;;;;5090500;28;20845;-51
2021/10/24 12:54:08;;;;;;;6.17;2.50;;;12.60;96.90;;;;;;5090493;28;20466;-51
2021/10/24 12:56:35;;;;;;;5.73;2.83;;;12.30;96.50;;;;;;5090483;28;20413;-50
2021/10/24 12:59:02;;;;;;;5.30;1.80;;;12.30;96.60;;;;;;5093799;28;20410;-50
2021/10/24 13:01:30;;;;;;;5.53;2.50;;;12.30;96.40;;;;;;5094570;28;20484;-51
2021/10/24 13:03:58;;;;;;;4.03;2.00;;;12.40;96.40;;;;;;5094603;28;20442;-51
2021/10/24 13:06:25;;;;;;;5.70;2.40;;;12.30;96.30;;;;;;5094057;28;20437;-51